createdAt,value
2016-08-29T00:00:03.198Z,0
2016-08-29T00:01:04.613Z,0
2016-08-29T00:02:04.623Z,0
2016-08-29T00:03:04.601Z,0
2016-08-29T00:04:04.593Z,0
2016-08-29T00:05:05.302Z,0
2016-08-29T00:06:05.297Z,0
2016-08-29T00:07:03.842Z,0
2016-08-29T00:08:05.280Z,0
2016-08-29T00:09:05.260Z,0
2016-08-29T00:10:03.850Z,0
2016-08-29T00:11:03.787Z,0
2016-08-29T00:12:05.216Z,0
2016-08-29T00:13:05.263Z,0
2016-08-29T00:14:04.608Z,0
2016-08-29T00:15:05.192Z,0
2016-08-29T00:16:03.740Z,0
2016-08-29T00:17:04.432Z,0
2016-08-29T00:18:04.418Z,0
2016-08-29T00:19:04.420Z,0
2016-08-29T00:20:05.121Z,0
2016-08-29T00:21:04.421Z,0
2016-08-29T00:22:04.382Z,0
2016-08-29T00:23:02.939Z,0
2016-08-29T00:24:03.628Z,0
2016-08-29T00:25:04.334Z,0
2016-08-29T00:26:05.051Z,0
2016-08-29T00:27:05.045Z,0
2016-08-29T00:28:04.301Z,0
2016-08-29T00:29:03.564Z,0
2016-08-29T00:30:05.001Z,0
2016-08-29T00:31:04.999Z,0
2016-08-29T00:32:04.983Z,0
2016-08-29T00:33:04.273Z,0
2016-08-29T00:34:04.991Z,0
2016-08-29T00:35:04.941Z,0
2016-08-29T00:36:04.935Z,0
2016-08-29T00:37:04.937Z,0
2016-08-29T00:38:04.914Z,0
2016-08-29T00:39:04.266Z,0
2016-08-29T00:40:04.170Z,0
2016-08-29T00:41:04.883Z,0
2016-08-29T00:42:04.904Z,0
2016-08-29T00:43:04.853Z,0
2016-08-29T00:44:03.406Z,0
2016-08-29T00:45:04.823Z,0
2016-08-29T00:46:04.858Z,0
2016-08-29T00:47:04.809Z,0
2016-08-29T00:48:04.083Z,0
2016-08-29T00:49:04.060Z,0
2016-08-29T00:50:04.827Z,0
2016-08-29T00:51:04.048Z,0
2016-08-29T00:52:04.800Z,0
2016-08-29T00:53:04.729Z,0
2016-08-29T00:54:04.742Z,0
2016-08-29T00:55:04.711Z,0
2016-08-29T00:56:04.761Z,0
2016-08-29T00:57:03.967Z,0
2016-08-29T00:58:04.732Z,0
2016-08-29T00:59:04.656Z,0
2016-08-29T01:00:04.631Z,0
2016-08-29T01:01:02.488Z,0
2016-08-29T01:02:04.721Z,0
2016-08-29T01:03:04.638Z,0
2016-08-29T01:04:03.906Z,0
2016-08-29T01:05:04.601Z,0
2016-08-29T01:06:04.581Z,0
2016-08-29T01:07:04.577Z,0
2016-08-29T01:08:03.833Z,0
2016-08-29T01:09:03.113Z,0
2016-08-29T01:10:03.823Z,0
2016-08-29T01:11:04.529Z,0
2016-08-29T01:12:03.803Z,0
2016-08-29T01:13:03.789Z,0
2016-08-29T01:14:03.770Z,0
2016-08-29T01:15:04.466Z,0
2016-08-29T01:16:03.742Z,0
2016-08-29T01:17:04.436Z,0
2016-08-29T01:18:02.998Z,0
2016-08-29T01:19:04.420Z,0
2016-08-29T01:20:02.272Z,0
2016-08-29T01:21:03.696Z,0
2016-08-29T01:22:04.406Z,0
2016-08-29T01:23:04.381Z,0
2016-08-29T01:24:04.439Z,0
2016-08-29T01:25:04.349Z,0
2016-08-29T01:26:02.901Z,0
2016-08-29T01:27:03.616Z,0
2016-08-29T01:28:04.328Z,0
2016-08-29T01:29:04.309Z,0
2016-08-29T01:30:04.317Z,0
2016-08-29T01:31:02.860Z,0
2016-08-29T01:32:03.565Z,0
2016-08-29T01:33:04.257Z,0
2016-08-29T01:34:03.527Z,0
2016-08-29T01:35:04.241Z,0
2016-08-29T01:36:03.498Z,0
2016-08-29T01:37:03.487Z,0
2016-08-29T01:38:04.188Z,0
2016-08-29T01:39:03.483Z,0
2016-08-29T01:40:04.180Z,0
2016-08-29T01:41:02.808Z,0
2016-08-29T01:42:03.422Z,0
2016-08-29T01:43:02.740Z,0
2016-08-29T01:44:04.141Z,0
2016-08-29T01:45:04.108Z,0
2016-08-29T01:46:03.469Z,0
2016-08-29T01:47:04.069Z,0
2016-08-29T01:48:04.068Z,0
2016-08-29T01:49:03.410Z,0
2016-08-29T01:50:02.697Z,0
2016-08-29T01:51:03.341Z,0
2016-08-29T01:52:04.036Z,0
2016-08-29T01:53:04.027Z,0
2016-08-29T01:54:03.291Z,0
2016-08-29T01:55:03.347Z,0
2016-08-29T01:56:03.989Z,0
2016-08-29T01:57:01.818Z,0
2016-08-29T01:58:03.966Z,0
2016-08-29T01:59:03.289Z,0
2016-08-29T02:00:03.937Z,0
2016-08-29T02:01:03.927Z,0
2016-08-29T02:02:03.927Z,0
2016-08-29T02:03:03.897Z,0
2016-08-29T02:04:03.866Z,0
2016-08-29T02:05:03.866Z,0
2016-08-29T02:06:03.850Z,0
2016-08-29T02:07:03.130Z,0
2016-08-29T02:08:03.828Z,0
2016-08-29T02:09:03.108Z,0
2016-08-29T02:10:03.809Z,0
2016-08-29T02:11:03.081Z,0
2016-08-29T02:12:03.788Z,0
2016-08-29T02:13:03.782Z,0
2016-08-29T02:14:03.757Z,0
2016-08-29T02:15:02.311Z,0
2016-08-29T02:16:03.018Z,0
2016-08-29T02:17:03.035Z,0
2016-08-29T02:18:03.005Z,0
2016-08-29T02:19:03.706Z,0
2016-08-29T02:20:03.692Z,0
2016-08-29T02:21:03.678Z,0
2016-08-29T02:22:02.938Z,0
2016-08-29T02:23:03.671Z,0
2016-08-29T02:24:03.000Z,0
2016-08-29T02:25:03.629Z,0
2016-08-29T02:26:02.279Z,0
2016-08-29T02:27:02.902Z,0
2016-08-29T02:28:03.577Z,0
2016-08-29T02:29:03.567Z,0
2016-08-29T02:30:02.913Z,0
2016-08-29T02:31:03.536Z,0
2016-08-29T02:32:03.543Z,0
2016-08-29T02:33:03.522Z,0
2016-08-29T02:34:02.849Z,0
2016-08-29T02:35:03.521Z,0
2016-08-29T02:36:02.776Z,0
2016-08-29T02:37:03.475Z,0
2016-08-29T02:38:02.777Z,0
2016-08-29T02:39:02.743Z,0
2016-08-29T02:40:03.442Z,0
2016-08-29T02:41:02.709Z,0
2016-08-29T02:42:01.991Z,0
2016-08-29T02:43:03.411Z,0
2016-08-29T02:44:03.410Z,0
2016-08-29T02:45:02.662Z,0
2016-08-29T02:46:02.714Z,0
2016-08-29T02:47:03.341Z,0
2016-08-29T02:48:03.338Z,0
2016-08-29T02:49:02.619Z,0
2016-08-29T02:50:02.617Z,0
2016-08-29T02:51:02.594Z,0
2016-08-29T02:52:03.304Z,0
2016-08-29T02:53:03.270Z,0
2016-08-29T02:54:03.275Z,0
2016-08-29T02:55:02.526Z,0
2016-08-29T02:56:03.268Z,0
2016-08-29T02:57:03.231Z,0
2016-08-29T02:58:02.520Z,0
2016-08-29T02:59:02.480Z,0
2016-08-29T03:00:02.490Z,0
2016-08-29T03:01:01.029Z,0
2016-08-29T03:02:02.464Z,0
2016-08-29T03:03:02.471Z,0
2016-08-29T03:04:03.137Z,0
2016-08-29T03:05:03.131Z,0
2016-08-29T03:06:03.129Z,0
2016-08-29T03:07:03.105Z,0
2016-08-29T03:08:03.094Z,0
2016-08-29T03:09:01.641Z,0
2016-08-29T03:10:03.106Z,0
2016-08-29T03:11:00.181Z,0
2016-08-29T03:12:00.890Z,0
2016-08-29T03:13:03.021Z,0
2016-08-29T03:14:03.070Z,0
2016-08-29T03:15:02.280Z,0
2016-08-29T03:16:02.991Z,0
2016-08-29T03:17:02.989Z,0
2016-08-29T03:18:03.049Z,0
2016-08-29T03:19:02.242Z,0
2016-08-29T03:20:02.981Z,0
2016-08-29T03:21:02.227Z,0
2016-08-29T03:22:02.303Z,0
2016-08-29T03:23:02.911Z,0
2016-08-29T03:24:02.891Z,0
2016-08-29T03:25:02.183Z,0
2016-08-29T03:26:02.139Z,0
2016-08-29T03:27:02.148Z,0
2016-08-29T03:28:02.126Z,0
2016-08-29T03:29:02.831Z,0
2016-08-29T03:30:02.839Z,0
2016-08-29T03:31:02.092Z,0
2016-08-29T03:32:02.062Z,0
2016-08-29T03:33:02.762Z,0
2016-08-29T03:34:02.061Z,0
2016-08-29T03:35:03.073Z,0
2016-08-29T03:36:02.763Z,0
2016-08-29T03:37:02.722Z,0
2016-08-29T03:38:02.730Z,0
2016-08-29T03:39:02.703Z,0
2016-08-29T03:40:02.689Z,0
2016-08-29T03:41:02.709Z,0
2016-08-29T03:42:01.932Z,0
2016-08-29T03:43:02.642Z,0
2016-08-29T03:44:01.932Z,0
2016-08-29T03:45:01.908Z,0
2016-08-29T03:46:02.639Z,0
2016-08-29T03:47:01.972Z,0
2016-08-29T03:48:02.591Z,0
2016-08-29T03:49:01.142Z,0
2016-08-29T03:50:01.841Z,0
2016-08-29T03:51:02.560Z,0
2016-08-29T03:52:01.829Z,0
2016-08-29T03:53:02.531Z,0
2016-08-29T03:54:02.521Z,0
2016-08-29T03:55:02.517Z,0
2016-08-29T03:56:02.502Z,0
2016-08-29T03:57:02.487Z,0
2016-08-29T03:58:02.464Z,0
2016-08-29T03:59:01.019Z,0
2016-08-29T04:00:01.790Z,0
2016-08-29T04:01:01.705Z,0
2016-08-29T04:02:00.985Z,0
2016-08-29T04:03:01.669Z,0
2016-08-29T04:04:01.672Z,0
2016-08-29T04:05:00.951Z,0
2016-08-29T04:06:02.359Z,0
2016-08-29T04:07:02.362Z,0
2016-08-29T04:08:02.333Z,0
2016-08-29T04:09:02.428Z,0
2016-08-29T04:10:02.301Z,0
2016-08-29T04:11:02.373Z,0
2016-08-29T04:12:02.282Z,0
2016-08-29T04:13:02.296Z,0
2016-08-29T04:14:02.271Z,0
2016-08-29T04:15:00.812Z,0
2016-08-29T04:16:01.532Z,0
2016-08-29T04:17:02.252Z,0
2016-08-29T04:18:02.220Z,0
2016-08-29T04:19:02.233Z,0
2016-08-29T04:20:01.471Z,0
2016-08-29T04:21:02.197Z,0
2016-08-29T04:22:02.158Z,0
2016-08-29T04:23:02.311Z,0
2016-08-29T04:24:02.143Z,0
2016-08-29T04:25:02.166Z,0
2016-08-29T04:26:02.121Z,0
2016-08-29T04:27:02.172Z,0
2016-08-29T04:28:02.077Z,0
2016-08-29T04:29:00.642Z,0
2016-08-29T04:30:02.250Z,0
2016-08-29T04:31:01.337Z,0
2016-08-29T04:32:02.050Z,0
2016-08-29T04:33:02.020Z,0
2016-08-29T04:34:02.013Z,0
2016-08-29T04:35:02.147Z,0
2016-08-29T04:36:01.260Z,0
2016-08-29T04:37:01.984Z,0
2016-08-29T04:38:01.973Z,0
2016-08-29T04:39:01.950Z,0
2016-08-29T04:40:01.253Z,0
2016-08-29T04:41:00.479Z,0
2016-08-29T04:42:01.913Z,0
2016-08-29T04:43:01.902Z,0
2016-08-29T04:44:01.882Z,0
2016-08-29T04:45:02.032Z,0
2016-08-29T04:46:01.873Z,0
2016-08-29T04:47:00.422Z,0
2016-08-29T04:48:01.832Z,0
2016-08-29T04:49:01.912Z,0
2016-08-29T04:50:01.823Z,0
2016-08-29T04:51:01.819Z,0
2016-08-29T04:52:01.789Z,5
2016-08-29T04:53:00.462Z,5
2016-08-29T04:54:01.769Z,0
2016-08-29T04:55:01.782Z,0
2016-08-29T04:56:01.761Z,0
2016-08-29T04:57:01.752Z,0
2016-08-29T04:58:01.034Z,0
2016-08-29T04:59:00.274Z,0
2016-08-29T05:00:00.961Z,0
2016-08-29T05:01:01.069Z,0
2016-08-29T05:02:01.642Z,0
2016-08-29T05:03:00.914Z,0
2016-08-29T05:04:00.960Z,0
2016-08-29T05:05:01.632Z,0
2016-08-29T05:06:01.609Z,0
2016-08-29T05:07:01.610Z,0
2016-08-29T05:08:01.592Z,0
2016-08-29T05:09:00.851Z,0
2016-08-29T05:10:00.907Z,0
2016-08-29T05:11:00.830Z,0
2016-08-29T05:12:00.891Z,0
2016-08-29T05:13:00.811Z,0
2016-08-29T05:14:01.549Z,0
2016-08-29T05:15:01.500Z,0
2016-08-29T05:16:00.790Z,0
2016-08-29T05:17:00.768Z,0
2016-08-29T05:18:01.597Z,0
2016-08-29T05:19:01.450Z,0
2016-08-29T05:20:01.461Z,0
2016-08-29T05:21:01.407Z,0
2016-08-29T05:22:00.691Z,0
2016-08-29T05:22:59.257Z,0
2016-08-29T05:24:00.048Z,0
2016-08-29T05:24:59.950Z,5
2016-08-29T05:26:01.362Z,5
2016-08-29T05:27:00.628Z,5
2016-08-29T05:28:01.388Z,5
2016-08-29T05:29:01.311Z,5
2016-08-29T05:30:00.657Z,10
2016-08-29T05:31:01.289Z,10
2016-08-29T05:31:59.181Z,10
2016-08-29T05:33:00.597Z,10
2016-08-29T05:34:01.330Z,5
2016-08-29T05:35:00.551Z,5
2016-08-29T05:36:02.217Z,5
2016-08-29T05:37:01.246Z,5
2016-08-29T05:38:01.218Z,5
2016-08-29T05:39:01.210Z,5
2016-08-29T05:39:59.757Z,5
2016-08-29T05:41:00.449Z,5
2016-08-29T05:42:01.170Z,5
2016-08-29T05:43:01.164Z,5
2016-08-29T05:44:01.156Z,5
2016-08-29T05:45:01.123Z,5
2016-08-29T05:45:59.698Z,5
2016-08-29T05:47:01.090Z,10
2016-08-29T05:48:00.378Z,10
2016-08-29T05:49:00.344Z,10
2016-08-29T05:50:01.061Z,15
2016-08-29T05:51:00.299Z,15
2016-08-29T05:52:00.397Z,15
2016-08-29T05:53:00.304Z,15
2016-08-29T05:54:01.011Z,15
2016-08-29T05:55:00.280Z,15
2016-08-29T05:56:01.020Z,10
2016-08-29T05:57:00.978Z,10
2016-08-29T05:58:00.227Z,10
2016-08-29T05:59:00.922Z,15
2016-08-29T06:00:00.940Z,15
2016-08-29T06:00:59.555Z,15
2016-08-29T06:02:00.249Z,15
2016-08-29T06:03:00.892Z,15
2016-08-29T06:04:00.908Z,15
2016-08-29T06:05:00.877Z,20
2016-08-29T06:06:00.859Z,20
2016-08-29T06:06:59.433Z,20
2016-08-29T06:08:00.117Z,20
2016-08-29T06:08:58.657Z,20
2016-08-29T06:09:59.429Z,25
2016-08-29T06:10:59.351Z,25
2016-08-29T06:12:00.780Z,25
2016-08-29T06:13:00.776Z,20
2016-08-29T06:14:00.752Z,20
2016-08-29T06:15:00.723Z,20
2016-08-29T06:16:00.000Z,20
2016-08-29T06:16:59.263Z,20
2016-08-29T06:18:00.700Z,15
2016-08-29T06:19:00.690Z,15
2016-08-29T06:19:59.946Z,15
2016-08-29T06:20:59.917Z,15
2016-08-29T06:22:00.641Z,15
2016-08-29T06:23:00.643Z,20
2016-08-29T06:24:00.609Z,20
2016-08-29T06:25:00.613Z,20
2016-08-29T06:26:00.591Z,20
2016-08-29T06:26:59.858Z,20
2016-08-29T06:28:00.562Z,20
2016-08-29T06:28:59.855Z,25
2016-08-29T06:29:59.829Z,25
2016-08-29T06:31:00.530Z,25
2016-08-29T06:32:00.511Z,25
2016-08-29T06:32:59.840Z,25
2016-08-29T06:33:59.055Z,25
2016-08-29T06:34:58.368Z,25
2016-08-29T06:35:59.777Z,30
2016-08-29T06:36:58.317Z,25
2016-08-29T06:37:59.063Z,25
2016-08-29T06:38:59.842Z,30
2016-08-29T06:40:00.421Z,30
2016-08-29T06:40:59.686Z,25
2016-08-29T06:41:58.937Z,30
2016-08-29T06:43:00.397Z,35
2016-08-29T06:43:59.649Z,40
2016-08-29T06:44:59.658Z,40
2016-08-29T06:45:58.259Z,40
2016-08-29T06:46:59.600Z,40
2016-08-29T06:47:59.585Z,45
2016-08-29T06:49:00.322Z,40
2016-08-29T06:49:59.556Z,35
2016-08-29T06:50:59.561Z,30
2016-08-29T06:52:00.266Z,30
2016-08-29T06:52:59.515Z,25
2016-08-29T06:54:00.225Z,25
2016-08-29T06:54:59.526Z,25
2016-08-29T06:55:58.822Z,30
2016-08-29T06:56:58.760Z,35
2016-08-29T06:57:58.761Z,40
2016-08-29T06:59:00.381Z,40
2016-08-29T06:59:59.430Z,40
2016-08-29T07:00:59.431Z,40
2016-08-29T07:02:00.122Z,40
2016-08-29T07:02:59.391Z,40
2016-08-29T07:03:58.712Z,30
2016-08-29T07:05:00.133Z,25
2016-08-29T07:06:00.079Z,30
2016-08-29T07:06:59.353Z,30
2016-08-29T07:08:00.061Z,35
2016-08-29T07:08:58.618Z,40
2016-08-29T07:09:58.605Z,50
2016-08-29T07:11:00.052Z,55
2016-08-29T07:11:59.990Z,65
2016-08-29T07:12:59.268Z,60
2016-08-29T07:13:58.602Z,55
2016-08-29T07:15:00.001Z,55
2016-08-29T07:15:59.239Z,60
2016-08-29T07:16:59.953Z,65
2016-08-29T07:17:59.928Z,70
2016-08-29T07:18:59.911Z,80
2016-08-29T07:19:57.751Z,85
2016-08-29T07:20:59.187Z,85
2016-08-29T07:21:59.879Z,90
2016-08-29T07:22:59.881Z,90
2016-08-29T07:23:58.441Z,95
2016-08-29T07:24:59.139Z,105
2016-08-29T07:25:59.139Z,105
2016-08-29T07:26:59.099Z,125
2016-08-29T07:27:58.392Z,135
2016-08-29T07:28:59.093Z,125
2016-08-29T07:29:59.068Z,130
2016-08-29T07:30:58.342Z,135
2016-08-29T07:31:58.351Z,215
2016-08-29T07:32:58.320Z,185
2016-08-29T07:33:59.729Z,180
2016-08-29T07:34:59.088Z,160
2016-08-29T07:35:59.013Z,140
2016-08-29T07:36:58.994Z,140
2016-08-29T07:37:58.273Z,165
2016-08-29T07:38:59.679Z,435
2016-08-29T07:39:58.302Z,310
2016-08-29T07:40:57.509Z,225
2016-08-29T07:41:59.802Z,290
2016-08-29T07:42:58.225Z,1070
2016-08-29T07:43:58.915Z,1215
2016-08-29T07:44:57.465Z,1235
2016-08-29T07:45:58.910Z,495
2016-08-29T07:46:59.593Z,495
2016-08-29T07:47:58.898Z,285
2016-08-29T07:48:58.148Z,435
2016-08-29T07:49:57.413Z,565
2016-08-29T07:50:59.558Z,290
2016-08-29T07:51:59.573Z,440
2016-08-29T07:52:58.809Z,1365
2016-08-29T07:53:59.563Z,585
2016-08-29T07:54:59.505Z,285
2016-08-29T07:55:57.370Z,425
2016-08-29T07:56:59.501Z,410
2016-08-29T07:57:58.061Z,320
2016-08-29T07:58:58.767Z,220
2016-08-29T07:59:58.747Z,165
2016-08-29T08:00:58.758Z,130
2016-08-29T08:01:58.743Z,105
2016-08-29T08:02:59.440Z,100
2016-08-29T08:03:58.718Z,95
2016-08-29T08:04:58.080Z,75
2016-08-29T08:05:57.471Z,55
2016-08-29T08:06:59.400Z,45
2016-08-29T08:07:59.420Z,40
2016-08-29T08:08:58.693Z,35
2016-08-29T08:09:57.942Z,35
2016-08-29T08:10:59.361Z,35
2016-08-29T08:11:59.369Z,40
2016-08-29T08:12:57.920Z,50
2016-08-29T08:13:59.400Z,70
2016-08-29T08:14:59.327Z,95
2016-08-29T08:15:59.322Z,120
2016-08-29T08:16:58.620Z,155
2016-08-29T08:17:57.879Z,210
2016-08-29T08:18:57.130Z,255
2016-08-29T08:19:58.571Z,290
2016-08-29T08:20:59.291Z,185
2016-08-29T08:21:59.269Z,145
2016-08-29T08:22:57.853Z,170
2016-08-29T08:23:59.268Z,1095
2016-08-29T08:24:57.786Z,290
2016-08-29T08:25:58.523Z,300
2016-08-29T08:26:57.882Z,255
2016-08-29T08:27:57.052Z,305
2016-08-29T08:28:59.226Z,200
2016-08-29T08:29:57.778Z,175
2016-08-29T08:30:56.338Z,155
2016-08-29T08:31:59.158Z,140
2016-08-29T08:32:57.722Z,125
2016-08-29T08:33:57.012Z,125
2016-08-29T08:34:57.741Z,160
2016-08-29T08:36:00.000Z,230
2016-08-29T08:36:58.460Z,215
2016-08-29T08:37:56.947Z,180
2016-08-29T08:38:58.433Z,255
2016-08-29T08:39:56.938Z,410
2016-08-29T08:40:59.118Z,660
2016-08-29T08:41:56.942Z,745
2016-08-29T08:42:58.391Z,1020
2016-08-29T08:43:59.025Z,1570
2016-08-29T08:44:58.390Z,595
2016-08-29T08:45:58.305Z,700
2016-08-29T08:46:57.593Z,455
2016-08-29T08:47:58.305Z,900
2016-08-29T08:48:59.060Z,650
2016-08-29T08:49:58.289Z,1635
2016-08-29T08:50:58.997Z,1015
2016-08-29T08:51:58.288Z,1010
2016-08-29T08:52:58.977Z,1125
2016-08-29T08:53:58.961Z,890
2016-08-29T08:54:59.008Z,1445
2016-08-29T08:55:57.525Z,1065
2016-08-29T08:56:58.980Z,305
2016-08-29T08:57:58.290Z,230
2016-08-29T08:58:58.250Z,220
2016-08-29T08:59:58.933Z,190
2016-08-29T09:00:58.959Z,165
2016-08-29T09:01:57.497Z,175
2016-08-29T09:02:57.477Z,195
2016-08-29T09:03:57.498Z,205
2016-08-29T09:04:58.911Z,155
2016-08-29T09:05:58.199Z,125
2016-08-29T09:06:58.171Z,105
2016-08-29T09:07:57.449Z,105
2016-08-29T09:08:57.428Z,110
2016-08-29T09:09:57.442Z,115
2016-08-29T09:10:57.431Z,115
2016-08-29T09:11:58.848Z,135
2016-08-29T09:12:57.413Z,935
2016-08-29T09:13:58.117Z,140
2016-08-29T09:14:58.851Z,105
2016-08-29T09:15:58.174Z,95
2016-08-29T09:16:58.112Z,80
2016-08-29T09:17:58.142Z,65
2016-08-29T09:18:58.081Z,55
2016-08-29T09:19:55.935Z,40
2016-08-29T09:20:58.787Z,35
2016-08-29T09:21:58.071Z,35
2016-08-29T09:22:58.056Z,35
2016-08-29T09:23:58.852Z,35
2016-08-29T09:24:58.750Z,40
2016-08-29T09:25:58.047Z,45
2016-08-29T09:26:58.025Z,50
2016-08-29T09:27:57.997Z,50
2016-08-29T09:28:57.990Z,50
2016-08-29T09:29:58.008Z,55
2016-08-29T09:30:57.979Z,55
2016-08-29T09:31:57.249Z,60
2016-08-29T09:32:58.658Z,65
2016-08-29T09:33:57.232Z,70
2016-08-29T09:34:58.658Z,75
2016-08-29T09:35:57.967Z,75
2016-08-29T09:36:57.927Z,70
2016-08-29T09:37:58.683Z,60
2016-08-29T09:38:58.609Z,55
2016-08-29T09:39:58.607Z,50
2016-08-29T09:40:57.877Z,50
2016-08-29T09:41:57.871Z,50
2016-08-29T09:42:57.856Z,50
2016-08-29T09:43:58.585Z,50
2016-08-29T09:44:58.562Z,50
2016-08-29T09:45:57.117Z,50
2016-08-29T09:46:57.837Z,50
2016-08-29T09:47:58.525Z,55
2016-08-29T09:48:57.870Z,55
2016-08-29T09:49:58.520Z,60
2016-08-29T09:50:57.796Z,60
2016-08-29T09:51:57.757Z,65
2016-08-29T09:52:57.780Z,70
2016-08-29T09:53:57.749Z,75
2016-08-29T09:54:56.287Z,110
2016-08-29T09:55:57.020Z,75
2016-08-29T09:56:58.455Z,65
2016-08-29T09:57:58.432Z,60
2016-08-29T09:58:56.977Z,55
2016-08-29T09:59:58.408Z,55
2016-08-29T10:00:57.730Z,55
2016-08-29T10:01:58.378Z,65
2016-08-29T10:02:57.663Z,70
2016-08-29T10:03:58.356Z,70
2016-08-29T10:04:56.930Z,70
2016-08-29T10:05:56.199Z,70
2016-08-29T10:06:57.615Z,70
2016-08-29T10:07:57.749Z,70
2016-08-29T10:08:57.641Z,70
2016-08-29T10:09:56.938Z,70
2016-08-29T10:10:56.872Z,75
2016-08-29T10:11:56.866Z,80
2016-08-29T10:12:56.181Z,90
2016-08-29T10:13:56.155Z,100
2016-08-29T10:14:56.819Z,135
2016-08-29T10:15:57.511Z,130
2016-08-29T10:16:57.530Z,140
2016-08-29T10:17:57.516Z,215
2016-08-29T10:18:56.763Z,210
2016-08-29T10:19:57.483Z,180
2016-08-29T10:20:56.738Z,170
2016-08-29T10:21:57.467Z,150
2016-08-29T10:22:56.006Z,135
2016-08-29T10:23:57.533Z,115
2016-08-29T10:24:56.711Z,105
2016-08-29T10:25:57.409Z,90
2016-08-29T10:26:58.173Z,85
2016-08-29T10:27:58.117Z,85
2016-08-29T10:28:57.398Z,85
2016-08-29T10:29:58.098Z,90
2016-08-29T10:30:57.471Z,95
2016-08-29T10:31:57.507Z,100
2016-08-29T10:32:57.342Z,100
2016-08-29T10:33:58.066Z,100
2016-08-29T10:34:58.049Z,105
2016-08-29T10:35:57.506Z,105
2016-08-29T10:36:57.356Z,110
2016-08-29T10:37:57.297Z,120
2016-08-29T10:38:57.297Z,135
2016-08-29T10:39:56.585Z,165
2016-08-29T10:40:55.852Z,170
2016-08-29T10:41:57.269Z,175
2016-08-29T10:42:57.257Z,180
2016-08-29T10:43:57.326Z,190
2016-08-29T10:44:56.505Z,205
2016-08-29T10:45:56.549Z,210
2016-08-29T10:46:55.801Z,220
2016-08-29T10:47:57.929Z,235
2016-08-29T10:48:57.199Z,245
2016-08-29T10:49:57.194Z,250
2016-08-29T10:50:57.894Z,265
2016-08-29T10:51:56.469Z,290
2016-08-29T10:52:56.436Z,320
2016-08-29T10:53:58.015Z,335
2016-08-29T10:54:55.727Z,350
2016-08-29T10:55:56.489Z,435
2016-08-29T10:56:57.850Z,410
2016-08-29T10:57:56.405Z,390
2016-08-29T10:58:55.674Z,380
2016-08-29T10:59:57.098Z,370
2016-08-29T11:01:00.930Z,370
2016-08-29T11:01:57.131Z,365
2016-08-29T11:02:57.787Z,370
2016-08-29T11:03:57.799Z,260
2016-08-29T11:04:57.126Z,315
2016-08-29T11:05:57.844Z,380
2016-08-29T11:06:57.038Z,385
2016-08-29T11:07:57.761Z,380
2016-08-29T11:08:56.310Z,360
2016-08-29T11:09:57.740Z,290
2016-08-29T11:10:56.402Z,285
2016-08-29T11:11:57.729Z,365
2016-08-29T11:12:57.716Z,390
2016-08-29T11:13:57.038Z,395
2016-08-29T11:14:55.567Z,380
2016-08-29T11:15:56.960Z,310
2016-08-29T11:16:55.550Z,295
2016-08-29T11:17:57.679Z,305
2016-08-29T11:18:57.695Z,300
2016-08-29T11:19:56.250Z,305
2016-08-29T11:20:55.576Z,300
2016-08-29T11:21:57.646Z,305
2016-08-29T11:22:57.646Z,290
2016-08-29T11:23:57.659Z,275
2016-08-29T11:24:57.839Z,245
2016-08-29T11:25:56.917Z,220
2016-08-29T11:26:57.626Z,195
2016-08-29T11:27:56.889Z,175
2016-08-29T11:28:56.897Z,165
2016-08-29T11:29:56.887Z,150
2016-08-29T11:30:56.898Z,140
2016-08-29T11:31:56.872Z,135
2016-08-29T11:32:56.307Z,130
2016-08-29T11:33:55.428Z,130
2016-08-29T11:34:55.418Z,125
2016-08-29T11:35:56.128Z,125
2016-08-29T11:36:57.549Z,125
2016-08-29T11:37:56.815Z,130
2016-08-29T11:38:56.189Z,135
2016-08-29T11:39:56.899Z,140
2016-08-29T11:40:56.817Z,140
2016-08-29T11:41:56.078Z,140
2016-08-29T11:42:55.371Z,140
2016-08-29T11:43:56.061Z,155
2016-08-29T11:44:56.183Z,150
2016-08-29T11:45:57.477Z,155
2016-08-29T11:46:56.827Z,160
2016-08-29T11:47:56.124Z,165
2016-08-29T11:48:57.477Z,160
2016-08-29T11:49:56.742Z,160
2016-08-29T11:50:55.993Z,160
2016-08-29T11:51:55.286Z,155
2016-08-29T11:52:55.288Z,155
2016-08-29T11:53:57.420Z,155
2016-08-29T11:54:56.696Z,155
2016-08-29T11:55:57.397Z,155
2016-08-29T11:56:56.670Z,150
2016-08-29T11:57:55.962Z,155
2016-08-29T11:58:56.658Z,160
2016-08-29T11:59:56.719Z,165
2016-08-29T12:00:57.338Z,170
2016-08-29T12:01:56.028Z,175
2016-08-29T12:02:57.349Z,180
2016-08-29T12:03:56.598Z,190
2016-08-29T12:04:56.591Z,200
2016-08-29T12:05:57.301Z,195
2016-08-29T12:06:57.296Z,200
2016-08-29T12:07:57.289Z,210
2016-08-29T12:08:57.280Z,215
2016-08-29T12:09:56.628Z,220
2016-08-29T12:10:56.543Z,240
2016-08-29T12:11:56.577Z,230
2016-08-29T12:12:56.531Z,280
2016-08-29T12:13:55.800Z,230
2016-08-29T12:14:55.813Z,230
2016-08-29T12:15:56.538Z,235
2016-08-29T12:16:57.220Z,235
2016-08-29T12:17:57.278Z,260
2016-08-29T12:18:56.480Z,390
2016-08-29T12:19:55.815Z,275
2016-08-29T12:20:55.759Z,265
2016-08-29T12:21:55.781Z,265
2016-08-29T12:22:57.181Z,265
2016-08-29T12:23:55.729Z,260
2016-08-29T12:24:55.011Z,265
2016-08-29T12:25:56.469Z,250
2016-08-29T12:26:55.702Z,255
2016-08-29T12:27:55.709Z,255
2016-08-29T12:28:54.985Z,250
2016-08-29T12:29:55.679Z,250
2016-08-29T12:30:56.396Z,245
2016-08-29T12:31:57.111Z,235
2016-08-29T12:32:55.668Z,225
2016-08-29T12:33:54.939Z,220
2016-08-29T12:34:56.357Z,225
2016-08-29T12:35:57.112Z,225
2016-08-29T12:36:54.910Z,210
2016-08-29T12:37:54.982Z,210
2016-08-29T12:38:57.063Z,210
2016-08-29T12:39:57.048Z,205
2016-08-29T12:40:56.338Z,200
2016-08-29T12:41:57.064Z,200
2016-08-29T12:42:57.002Z,205
2016-08-29T12:43:55.569Z,260
2016-08-29T12:44:55.590Z,220
2016-08-29T12:45:55.562Z,220
2016-08-29T12:46:55.572Z,225
2016-08-29T12:47:55.549Z,220
2016-08-29T12:48:56.298Z,220
2016-08-29T12:49:55.529Z,225
2016-08-29T12:50:55.545Z,225
2016-08-29T12:51:55.518Z,210
2016-08-29T12:52:56.961Z,210
2016-08-29T12:53:56.959Z,210
2016-08-29T12:54:56.208Z,215
2016-08-29T12:55:54.778Z,205
2016-08-29T12:56:55.472Z,205
2016-08-29T12:57:56.192Z,205
2016-08-29T12:58:56.911Z,205
2016-08-29T12:59:56.898Z,200
2016-08-29T13:00:55.471Z,200
2016-08-29T13:01:56.889Z,195
2016-08-29T13:02:55.430Z,195
2016-08-29T13:03:56.137Z,195
2016-08-29T13:04:55.410Z,195
2016-08-29T13:05:56.113Z,190
2016-08-29T13:06:54.688Z,185
2016-08-29T13:07:56.177Z,185
2016-08-29T13:08:56.159Z,180
2016-08-29T13:09:53.937Z,175
2016-08-29T13:10:56.098Z,165
2016-08-29T13:11:56.773Z,165
2016-08-29T13:12:56.859Z,165
2016-08-29T13:13:56.768Z,160
2016-08-29T13:14:56.847Z,160
2016-08-29T13:15:55.318Z,160
2016-08-29T13:16:55.331Z,160
2016-08-29T13:17:54.605Z,160
2016-08-29T13:18:54.589Z,165
2016-08-29T13:19:55.298Z,175
2016-08-29T13:20:55.280Z,180
2016-08-29T13:21:55.376Z,185
2016-08-29T13:22:56.027Z,190
2016-08-29T13:23:55.969Z,225
2016-08-29T13:24:56.040Z,195
2016-08-29T13:25:56.678Z,195
2016-08-29T13:26:54.531Z,185
2016-08-29T13:27:55.962Z,190
2016-08-29T13:28:55.221Z,185
2016-08-29T13:29:54.504Z,190
2016-08-29T13:30:55.200Z,195
2016-08-29T13:31:54.482Z,205
2016-08-29T13:32:55.209Z,255
2016-08-29T13:33:54.522Z,210
2016-08-29T13:34:56.600Z,215
2016-08-29T13:35:56.593Z,365
2016-08-29T13:36:54.429Z,225
2016-08-29T13:37:55.889Z,230
2016-08-29T13:38:54.441Z,210
2016-08-29T13:39:55.162Z,305
2016-08-29T13:40:55.832Z,245
2016-08-29T13:41:53.685Z,255
2016-08-29T13:42:55.169Z,350
2016-08-29T13:43:55.828Z,320
2016-08-29T13:44:54.389Z,260
2016-08-29T13:45:55.829Z,255
2016-08-29T13:46:55.802Z,200
2016-08-29T13:47:55.789Z,210
2016-08-29T13:48:56.508Z,205
2016-08-29T13:49:56.514Z,215
2016-08-29T13:50:55.772Z,210
2016-08-29T13:51:55.809Z,210
2016-08-29T13:52:55.051Z,210
2016-08-29T13:53:55.049Z,210
2016-08-29T13:54:55.092Z,210
2016-08-29T13:55:55.727Z,230
2016-08-29T13:56:55.708Z,240
2016-08-29T13:57:55.728Z,355
2016-08-29T13:58:54.999Z,255
2016-08-29T13:59:54.990Z,245
2016-08-29T14:00:54.965Z,330
2016-08-29T14:01:54.973Z,310
2016-08-29T14:02:54.947Z,330
2016-08-29T14:03:56.417Z,310
2016-08-29T14:04:53.528Z,260
2016-08-29T14:05:54.949Z,345
2016-08-29T14:06:54.216Z,340
2016-08-29T14:07:56.428Z,285
2016-08-29T14:08:54.914Z,260
2016-08-29T14:09:56.417Z,230
2016-08-29T14:10:54.929Z,320
2016-08-29T14:11:55.616Z,205
2016-08-29T14:12:54.936Z,215
2016-08-29T14:13:55.598Z,170
2016-08-29T14:14:56.307Z,170